Time;durP1;ratioP1;P1;durP2;ratioP2;P2;SDS_P1;SDS_P2;PMS_P1;PMS_P2;Temp;Humidity;BMP_temperature;BMP_pressure;BME280_temperature;BME280_humidity;BME280_pressure;Samples;Min_cycle;Max_cycle;Signal;HPM_P1;HPM_P2
2022/03/06 00:02:10;;;;;;;8.23;5.43;;;;;;;;;;4881130;29;20075;-74
2022/03/06 00:04:36;;;;;;;9.18;5.95;;;;;;;;;;4880998;29;20033;-71
2022/03/06 00:07:03;;;;;;;10.15;5.90;;;;;;;;;;4880729;29;20025;-68
2022/03/06 00:09:28;;;;;;;9.32;5.80;;;;;;;;;;4881012;29;20065;-73
2022/03/06 00:11:54;;;;;;;8.30;5.45;;;;;;;;;;4881202;29;20066;-71
2022/03/06 00:14:20;;;;;;;11.18;5.82;;;;;;;;;;4881134;29;20040;-74
2022/03/06 00:16:46;;;;;;;8.68;5.65;;;;;;;;;;4880660;29;20116;-72
2022/03/06 00:19:12;;;;;;;11.80;6.95;;;;;;;;;;4880673;29;20041;-70
2022/03/06 00:21:39;;;;;;;10.35;5.95;;;;;;;;;;4880988;29;20036;-70
2022/03/06 00:24:06;;;;;;;8.68;5.97;;;;;;;;;;4880178;29;20165;-71
2022/03/06 00:26:32;;;;;;;12.98;7.05;;;;;;;;;;4879104;29;20085;-71
2022/03/06 00:28:59;;;;;;;11.00;6.53;;;;;;;;;;4880651;29;20033;-73
2022/03/06 00:31:24;;;;;;;10.80;6.15;;;;;;;;;;4880639;29;20056;-71
2022/03/06 00:33:53;;;;;;;9.88;6.10;;;;;;;;;;4880948;29;20069;-72
2022/03/06 00:36:19;;;;;;;10.25;6.75;;;;;;;;;;4880640;29;20116;-71
2022/03/06 00:38:45;;;;;;;11.30;6.10;;;;;;;;;;4880343;29;20402;-75
2022/03/06 00:41:12;;;;;;;7.90;5.68;;;;;;;;;;4880311;29;20108;-69
2022/03/06 00:43:38;;;;;;;9.98;6.22;;;;;;;;;;4880386;29;20059;-69
2022/03/06 00:46:04;;;;;;;12.75;6.20;;;;;;;;;;4880334;29;20041;-70
2022/03/06 00:48:30;;;;;;;12.60;6.63;;;;;;;;;;4880399;29;20041;-71
2022/03/06 00:50:56;;;;;;;9.35;6.43;;;;;;;;;;4880347;29;20056;-70
2022/03/06 00:53:23;;;;;;;10.45;6.53;;;;;;;;;;4880332;29;20184;-75
2022/03/06 00:55:48;;;;;;;9.65;6.32;;;;;;;;;;4880146;29;20076;-69
2022/03/06 00:58:14;;;;;;;7.80;5.32;;;;;;;;;;4879820;29;20124;-72
2022/03/06 01:00:43;;;;;;;9.02;6.07;;;;;;;;;;4880060;29;20116;-71
2022/03/06 01:03:11;;;;;;;9.52;6.25;;;;;;;;;;4879819;29;20088;-74
2022/03/06 01:05:39;;;;;;;9.27;5.95;;;;;;;;;;4880102;29;20056;-72
2022/03/06 01:08:06;;;;;;;10.50;6.45;;;;;;;;;;4879914;29;20101;-71
2022/03/06 01:10:33;;;;;;;10.30;6.78;;;;;;;;;;4886184;29;20021;-70
2022/03/06 01:12:59;;;;;;;7.97;5.30;;;;;;;;;;4898627;29;20044;-70
2022/03/06 01:15:25;;;;;;;7.00;4.57;;;;;;;;;;4898990;29;20388;-69
2022/03/06 01:17:51;;;;;;;5.38;3.45;;;;;;;;;;4898426;29;20040;-69
2022/03/06 01:20:17;;;;;;;8.15;3.85;;;;;;;;;;4898189;29;20033;-75
2022/03/06 01:22:44;;;;;;;5.63;3.50;;;;;;;;;;4883185;29;20029;-71
2022/03/06 01:25:10;;;;;;;5.28;3.10;;;;;;;;;;4879766;29;20461;-69
2022/03/06 01:27:36;;;;;;;6.47;3.33;;;;;;;;;;4879588;29;20044;-72
2022/03/06 01:30:05;;;;;;;4.35;2.95;;;;;;;;;;4880712;29;20029;-70
2022/03/06 01:32:32;;;;;;;3.85;2.58;;;;;;;;;;4880606;29;20052;-71
2022/03/06 01:34:58;;;;;;;4.63;2.35;;;;;;;;;;4880548;29;20071;-69
2022/03/06 01:37:24;;;;;;;4.97;3.10;;;;;;;;;;4880743;29;20041;-69
2022/03/06 01:39:50;;;;;;;4.10;2.88;;;;;;;;;;4880415;29;20025;-68
2022/03/06 01:42:16;;;;;;;4.00;2.42;;;;;;;;;;4878214;29;20489;-74
2022/03/06 01:44:52;;;;;;;3.47;2.50;;;;;;;;;;4895596;29;20044;-73
2022/03/06 01:47:47;;;;;;;3.67;2.40;;;;;;;;;;4897700;29;20036;-72
2022/03/06 01:50:19;;;;;;;5.78;2.90;;;;;;;;;;4897933;29;20072;-72
2022/03/06 01:52:47;;;;;;;4.22;2.95;;;;;;;;;;4896514;29;20045;-71
2022/03/06 01:55:14;;;;;;;4.03;2.78;;;;;;;;;;4896295;29;20504;-72
2022/03/06 01:57:41;;;;;;;4.68;2.92;;;;;;;;;;4895682;29;20051;-75
2022/03/06 02:00:12;;;;;;;3.42;2.55;;;;;;;;;;4878904;29;20056;-69
2022/03/06 02:02:38;;;;;;;4.05;2.45;;;;;;;;;;4884092;29;20385;-68
2022/03/06 02:05:05;;;;;;;3.15;2.00;;;;;;;;;;4897591;29;20485;-69
2022/03/06 02:07:30;;;;;;;4.82;2.53;;;;;;;;;;4900563;29;20029;-69
2022/03/06 02:09:57;;;;;;;4.07;2.30;;;;;;;;;;4901606;29;20036;-68
2022/03/06 02:12:24;;;;;;;3.28;2.42;;;;;;;;;;4897682;29;20179;-69
2022/03/06 02:14:51;;;;;;;3.08;2.35;;;;;;;;;;4897285;29;20080;-69
2022/03/06 02:17:18;;;;;;;3.33;2.45;;;;;;;;;;4897309;29;20640;-68
2022/03/06 02:20:11;;;;;;;3.80;2.30;;;;;;;;;;4896944;29;20029;-68
2022/03/06 02:22:39;;;;;;;3.35;2.45;;;;;;;;;;4884544;29;20053;-67
2022/03/06 02:25:08;;;;;;;3.65;2.53;;;;;;;;;;4878581;29;20128;-67
2022/03/06 02:27:35;;;;;;;4.10;3.20;;;;;;;;;;4878826;29;20061;-68
2022/03/06 02:30:05;;;;;;;3.10;2.30;;;;;;;;;;4878926;29;20033;-71
2022/03/06 02:32:31;;;;;;;3.08;2.20;;;;;;;;;;4878704;29;20512;-67
2022/03/06 02:34:57;;;;;;;4.05;2.13;;;;;;;;;;4878267;29;20044;-67
2022/03/06 02:37:23;;;;;;;3.30;1.90;;;;;;;;;;4878221;29;20029;-67
2022/03/06 02:39:49;;;;;;;4.28;1.88;;;;;;;;;;4878387;29;20481;-69
2022/03/06 02:42:28;;;;;;;2.80;2.00;;;;;;;;;;4878595;29;20077;-70
2022/03/06 02:44:56;;;;;;;2.20;1.60;;;;;;;;;;4878308;29;20040;-72
2022/03/06 02:47:22;;;;;;;3.63;1.67;;;;;;;;;;4877806;29;20033;-71
2022/03/06 02:49:48;;;;;;;2.90;1.80;;;;;;;;;;4878161;29;20033;-68
2022/03/06 02:52:14;;;;;;;3.03;1.85;;;;;;;;;;4877981;29;20085;-70
2022/03/06 02:54:40;;;;;;;3.38;2.10;;;;;;;;;;4878136;29;20445;-68
2022/03/06 02:57:07;;;;;;;3.03;1.95;;;;;;;;;;4876710;29;20385;-69
2022/03/06 02:59:33;;;;;;;3.95;2.15;;;;;;;;;;4878096;29;20076;-70
2022/03/06 03:01:59;;;;;;;2.72;1.77;;;;;;;;;;4878496;29;20159;-70
2022/03/06 03:04:26;;;;;;;2.35;1.60;;;;;;;;;;4878198;29;20061;-70
2022/03/06 03:06:52;;;;;;;2.60;1.73;;;;;;;;;;4878028;29;20033;-68
2022/03/06 03:09:20;;;;;;;2.83;1.90;;;;;;;;;;4877987;29;20401;-68
2022/03/06 03:11:54;;;;;;;2.92;1.80;;;;;;;;;;4878158;29;20528;-68
2022/03/06 03:14:21;;;;;;;2.83;2.08;;;;;;;;;;4878135;29;20366;-68
2022/03/06 03:16:47;;;;;;;3.85;2.17;;;;;;;;;;4878139;29;20029;-67
2022/03/06 03:19:13;;;;;;;3.53;2.08;;;;;;;;;;4877847;29;20093;-70
2022/03/06 03:21:39;;;;;;;3.15;2.08;;;;;;;;;;4877936;29;20029;-70
2022/03/06 03:24:05;;;;;;;3.55;2.53;;;;;;;;;;4878064;29;20069;-71
2022/03/06 03:26:31;;;;;;;3.90;2.67;;;;;;;;;;4877791;29;20029;-70
2022/03/06 03:28:58;;;;;;;3.03;2.15;;;;;;;;;;4877925;29;20037;-69
2022/03/06 03:31:24;;;;;;;2.88;1.42;;;;;;;;;;4877805;29;20060;-70
2022/03/06 03:33:49;;;;;;;3.28;1.90;;;;;;;;;;4877828;29;20049;-69
2022/03/06 03:36:15;;;;;;;1.90;1.27;;;;;;;;;;4877877;29;20049;-68
2022/03/06 03:38:41;;;;;;;4.55;2.75;;;;;;;;;;4878041;29;20374;-68
2022/03/06 03:41:08;;;;;;;2.63;1.70;;;;;;;;;;4877856;29;20115;-68
2022/03/06 03:43:34;;;;;;;3.78;1.60;;;;;;;;;;4877908;29;20049;-69
2022/03/06 03:46:00;;;;;;;2.50;1.58;;;;;;;;;;4877618;29;20031;-71
2022/03/06 03:48:29;;;;;;;2.60;1.50;;;;;;;;;;4877493;29;20040;-71
2022/03/06 03:50:56;;;;;;;4.90;1.52;;;;;;;;;;4877977;29;20057;-69
2022/03/06 03:53:22;;;;;;;2.63;1.60;;;;;;;;;;4877690;29;20051;-70
2022/03/06 03:55:49;;;;;;;3.92;1.80;;;;;;;;;;4876344;29;20052;-70
2022/03/06 03:58:15;;;;;;;2.17;1.50;;;;;;;;;;4877582;29;20051;-70
2022/03/06 04:00:44;;;;;;;2.90;1.60;;;;;;;;;;4879679;29;20041;-67
2022/03/06 04:03:10;;;;;;;2.60;1.83;;;;;;;;;;4879809;29;20044;-70
2022/03/06 04:05:37;;;;;;;3.97;2.08;;;;;;;;;;4880745;29;20104;-71
2022/03/06 04:08:03;;;;;;;2.70;1.95;;;;;;;;;;4880867;29;20040;-69
2022/03/06 04:10:29;;;;;;;2.15;1.52;;;;;;;;;;4881197;29;20389;-70
2022/03/06 04:12:55;;;;;;;5.22;1.92;;;;;;;;;;4881124;29;20041;-70
2022/03/06 04:15:21;;;;;;;2.35;1.70;;;;;;;;;;4880571;29;20374;-68
2022/03/06 04:17:46;;;;;;;2.97;2.05;;;;;;;;;;4880107;29;20543;-68
2022/03/06 04:20:12;;;;;;;4.25;2.40;;;;;;;;;;4880599;29;20112;-69
2022/03/06 04:22:38;;;;;;;3.08;2.25;;;;;;;;;;4880651;29;20180;-71
2022/03/06 04:25:04;;;;;;;5.50;2.95;;;;;;;;;;4880711;29;20032;-68
2022/03/06 04:27:30;;;;;;;5.47;3.17;;;;;;;;;;4880478;29;20033;-70
2022/03/06 04:29:56;;;;;;;5.18;2.70;;;;;;;;;;4880879;29;20081;-68
2022/03/06 04:32:22;;;;;;;3.63;2.42;;;;;;;;;;4880797;29;20196;-71
2022/03/06 04:34:48;;;;;;;4.65;3.08;;;;;;;;;;4880534;29;20077;-73
2022/03/06 04:37:14;;;;;;;7.85;4.03;;;;;;;;;;4880803;29;20508;-68
2022/03/06 04:39:40;;;;;;;7.15;3.80;;;;;;;;;;4880615;29;20029;-70
2022/03/06 04:42:06;;;;;;;4.53;3.38;;;;;;;;;;4880565;29;20049;-70
2022/03/06 04:44:32;;;;;;;4.35;3.15;;;;;;;;;;4879914;29;20474;-68
2022/03/06 04:46:58;;;;;;;7.55;4.95;;;;;;;;;;4879689;29;20041;-69
2022/03/06 04:49:23;;;;;;;6.82;4.45;;;;;;;;;;4880058;29;20504;-70
2022/03/06 04:51:49;;;;;;;5.10;3.13;;;;;;;;;;4879627;29;20044;-72
2022/03/06 04:54:15;;;;;;;4.15;3.20;;;;;;;;;;4879566;29;20116;-69
2022/03/06 04:56:41;;;;;;;5.68;3.55;;;;;;;;;;4881140;29;20048;-70
2022/03/06 04:59:07;;;;;;;9.23;4.15;;;;;;;;;;4880854;29;20049;-71
2022/03/06 05:01:34;;;;;;;7.68;4.35;;;;;;;;;;4881022;29;20496;-69
2022/03/06 05:04:01;;;;;;;6.45;3.75;;;;;;;;;;4881060;29;20075;-71
2022/03/06 05:06:27;;;;;;;6.20;4.78;;;;;;;;;;4880599;29;20473;-71
2022/03/06 05:08:53;;;;;;;7.95;5.22;;;;;;;;;;4879585;29;20035;-71
2022/03/06 05:11:19;;;;;;;8.15;4.40;;;;;;;;;;4879001;29;20033;-68
2022/03/06 05:13:45;;;;;;;8.15;4.00;;;;;;;;;;4881031;29;20061;-70
2022/03/06 05:16:11;;;;;;;9.45;4.15;;;;;;;;;;4880724;29;20037;-69
2022/03/06 05:18:37;;;;;;;6.22;3.97;;;;;;;;;;4880630;29;20088;-69
2022/03/06 05:21:03;;;;;;;7.65;4.53;;;;;;;;;;4896342;29;20536;-72
2022/03/06 05:23:29;;;;;;;6.68;4.57;;;;;;;;;;4881741;29;20029;-69
2022/03/06 05:25:54;;;;;;;7.93;4.68;;;;;;;;;;4880651;29;20037;-72
2022/03/06 05:28:21;;;;;;;7.45;5.20;;;;;;;;;;4893333;29;20029;-71
2022/03/06 05:30:47;;;;;;;7.68;4.85;;;;;;;;;;4893160;29;20040;-71
2022/03/06 05:33:13;;;;;;;6.28;4.50;;;;;;;;;;4892591;29;20032;-74
2022/03/06 05:35:39;;;;;;;8.05;4.90;;;;;;;;;;4895677;29;20430;-75
2022/03/06 05:38:05;;;;;;;7.38;4.45;;;;;;;;;;4894818;29;20036;-75
2022/03/06 05:40:31;;;;;;;6.57;3.83;;;;;;;;;;4888245;29;20373;-75
2022/03/06 05:42:57;;;;;;;5.55;3.75;;;;;;;;;;4899033;29;20032;-77
2022/03/06 05:45:23;;;;;;;5.22;3.58;;;;;;;;;;4882322;29;20068;-76
2022/03/06 05:47:48;;;;;;;5.13;3.42;;;;;;;;;;4885272;29;20028;-77
2022/03/06 05:50:14;;;;;;;4.32;2.95;;;;;;;;;;4898876;29;20039;-74
2022/03/06 05:52:40;;;;;;;5.97;3.50;;;;;;;;;;4898613;29;20108;-73
2022/03/06 05:55:07;;;;;;;5.78;3.60;;;;;;;;;;4898580;29;20039;-76
2022/03/06 05:57:32;;;;;;;6.10;3.78;;;;;;;;;;4898624;29;20391;-78
2022/03/06 05:59:58;;;;;;;5.95;3.83;;;;;;;;;;4898615;29;20132;-76
2022/03/06 06:02:24;;;;;;;5.15;3.22;;;;;;;;;;4898688;29;20033;-74
2022/03/06 06:13:49;;;;;;;4.35;3.10;;;;;;;;;;4728728;29;20082;-75
2022/03/06 06:16:15;;;;;;;5.40;3.17;;;;;;;;;;4935839;29;20397;-75
2022/03/06 06:26:35;;;;;;;4.20;2.92;;;;;;;;;;4910373;29;20052;-75
2022/03/06 06:29:01;;;;;;;4.85;3.40;;;;;;;;;;4915862;29;20095;-75
2022/03/06 06:31:27;;;;;;;4.57;3.13;;;;;;;;;;4913346;29;20036;-72
2022/03/06 06:37:33;;;;;;;5.10;3.50;;;;;;;;;;4876264;29;20094;-76
2022/03/06 06:39:59;;;;;;;5.68;4.25;;;;;;;;;;4897635;29;20067;-74
2022/03/06 06:42:25;;;;;;;5.20;3.65;;;;;;;;;;4887435;29;20060;-75
2022/03/06 06:44:51;;;;;;;4.80;3.40;;;;;;;;;;4887571;29;21110;-75
2022/03/06 06:47:16;;;;;;;5.57;3.55;;;;;;;;;;4877631;29;20087;-74
2022/03/06 06:49:42;;;;;;;8.52;3.28;;;;;;;;;;4877867;29;20044;-72
2022/03/06 06:52:08;;;;;;;5.13;3.15;;;;;;;;;;4877288;29;20108;-75
2022/03/06 06:54:34;;;;;;;7.40;3.53;;;;;;;;;;4878595;29;20452;-72
2022/03/06 06:56:59;;;;;;;3.03;2.28;;;;;;;;;;4879043;29;20025;-72
2022/03/06 06:59:25;;;;;;;4.90;2.80;;;;;;;;;;4889872;29;20631;-72
2022/03/06 07:01:51;;;;;;;5.50;3.28;;;;;;;;;;4897034;29;20511;-71
2022/03/06 07:04:17;;;;;;;3.53;2.47;;;;;;;;;;4897517;29;20080;-72
2022/03/06 07:06:43;;;;;;;3.53;2.42;;;;;;;;;;4885975;29;20084;-72
2022/03/06 07:09:08;;;;;;;6.07;2.90;;;;;;;;;;4877850;29;20037;-76
2022/03/06 07:11:34;;;;;;;4.65;2.95;;;;;;;;;;4894981;29;20085;-73
2022/03/06 07:19:16;;;;;;;4.18;2.85;;;;;;;;;;4914346;29;20048;-75
2022/03/06 07:21:41;;;;;;;4.07;2.60;;;;;;;;;;4916000;29;20403;-74
2022/03/06 07:24:07;;;;;;;4.97;2.53;;;;;;;;;;4915959;29;20099;-72
2022/03/06 07:26:33;;;;;;;3.53;2.40;;;;;;;;;;4900971;29;20031;-73
2022/03/06 07:28:59;;;;;;;3.65;2.60;;;;;;;;;;4894427;29;20507;-76
2022/03/06 07:31:24;;;;;;;4.28;3.10;;;;;;;;;;4885231;29;20052;-74
2022/03/06 07:33:50;;;;;;;4.20;2.97;;;;;;;;;;4879164;29;20066;-75
2022/03/06 07:36:16;;;;;;;5.57;3.38;;;;;;;;;;4885512;29;20025;-72
2022/03/06 07:38:42;;;;;;;3.25;2.55;;;;;;;;;;4888467;29;20519;-74
2022/03/06 07:41:08;;;;;;;16.27;4.05;;;;;;;;;;4882089;29;20170;-74
2022/03/06 07:43:35;;;;;;;3.15;2.08;;;;;;;;;;4882016;29;20109;-75
2022/03/06 07:46:01;;;;;;;4.72;2.08;;;;;;;;;;4885541;29;20035;-74
2022/03/06 07:48:28;;;;;;;5.88;3.22;;;;;;;;;;4889787;29;20051;-71
2022/03/06 07:50:54;;;;;;;5.40;3.70;;;;;;;;;;4884173;29;20029;-76
2022/03/06 07:53:20;;;;;;;10.50;4.40;;;;;;;;;;4881706;29;20108;-74
2022/03/06 07:55:45;;;;;;;6.15;4.28;;;;;;;;;;4881777;29;20416;-76
2022/03/06 07:58:11;;;;;;;7.28;4.47;;;;;;;;;;4881620;29;20077;-77
2022/03/06 08:00:39;;;;;;;6.00;4.13;;;;;;;;;;4880149;29;20049;-73
2022/03/06 08:03:05;;;;;;;5.65;4.15;;;;;;;;;;4881330;29;20072;-73
2022/03/06 08:05:31;;;;;;;5.75;3.55;;;;;;;;;;4884160;29;20128;-77
2022/03/06 08:07:57;;;;;;;4.25;3.00;;;;;;;;;;4887458;29;20117;-76
2022/03/06 08:10:23;;;;;;;2.30;1.60;;;;;;;;;;4888665;29;20139;-74
2022/03/06 08:12:49;;;;;;;2.97;2.10;;;;;;;;;;4891705;29;20049;-73
2022/03/06 08:15:16;;;;;;;3.17;1.90;;;;;;;;;;4899553;29;20028;-75
2022/03/06 08:17:42;;;;;;;2.05;1.60;;;;;;;;;;4899588;29;20080;-73
2022/03/06 08:20:08;;;;;;;2.90;1.50;;;;;;;;;;4899920;29;20071;-74
2022/03/06 08:22:34;;;;;;;2.80;1.88;;;;;;;;;;4899680;29;20040;-75
2022/03/06 08:25:00;;;;;;;3.63;2.30;;;;;;;;;;4899892;29;20080;-74
2022/03/06 08:27:26;;;;;;;3.33;2.53;;;;;;;;;;4899716;29;20041;-75
2022/03/06 08:29:52;;;;;;;6.65;2.88;;;;;;;;;;4899623;29;20024;-74
2022/03/06 08:32:18;;;;;;;4.60;3.08;;;;;;;;;;4899672;29;20318;-73
2022/03/06 08:34:45;;;;;;;4.90;3.20;;;;;;;;;;4899691;29;20035;-72
2022/03/06 08:37:11;;;;;;;5.30;3.30;;;;;;;;;;4899599;29;20155;-75
2022/03/06 08:39:37;;;;;;;5.63;3.30;;;;;;;;;;4899094;29;20485;-76
2022/03/06 08:42:03;;;;;;;7.30;4.45;;;;;;;;;;4899974;29;20052;-74
2022/03/06 08:44:28;;;;;;;7.68;5.72;;;;;;;;;;4899756;29;20032;-74
2022/03/06 08:46:54;;;;;;;6.22;3.75;;;;;;;;;;4898815;29;20037;-72
2022/03/06 08:49:20;;;;;;;4.93;3.15;;;;;;;;;;4899761;29;20024;-75
2022/03/06 08:51:46;;;;;;;3.85;2.42;;;;;;;;;;4899061;29;20554;-72
2022/03/06 08:54:12;;;;;;;4.05;2.53;;;;;;;;;;4899168;29;20061;-72
2022/03/06 08:56:38;;;;;;;6.07;3.05;;;;;;;;;;4899439;29;20052;-73
2022/03/06 08:59:04;;;;;;;4.72;2.83;;;;;;;;;;4899129;29;20028;-76
2022/03/06 09:01:30;;;;;;;5.18;2.75;;;;;;;;;;4898917;29;20055;-72
2022/03/06 09:03:55;;;;;;;4.32;2.88;;;;;;;;;;4898913;29;20032;-76
2022/03/06 09:06:21;;;;;;;5.90;3.35;;;;;;;;;;4899358;29;20091;-75
2022/03/06 09:08:47;;;;;;;5.55;3.30;;;;;;;;;;4899280;29;20395;-79
2022/03/06 09:11:13;;;;;;;5.10;3.33;;;;;;;;;;4898670;29;20040;-75
2022/03/06 09:13:38;;;;;;;5.85;3.50;;;;;;;;;;4897630;29;20032;-73
2022/03/06 09:16:05;;;;;;;6.25;3.35;;;;;;;;;;4898721;29;20032;-76
2022/03/06 09:18:31;;;;;;;4.82;3.17;;;;;;;;;;4898793;29;20049;-76
2022/03/06 09:20:57;;;;;;;6.88;3.75;;;;;;;;;;4898797;29;20400;-75
2022/03/06 09:23:24;;;;;;;6.07;3.45;;;;;;;;;;4898836;29;20032;-75
2022/03/06 09:25:50;;;;;;;6.50;3.50;;;;;;;;;;4898766;29;20115;-74
2022/03/06 09:28:16;;;;;;;11.10;3.60;;;;;;;;;;4898754;29;20109;-75
2022/03/06 09:30:42;;;;;;;3.72;2.70;;;;;;;;;;4898696;29;20399;-77
2022/03/06 09:33:08;;;;;;;8.57;3.50;;;;;;;;;;4898498;29;20025;-77
2022/03/06 09:35:34;;;;;;;17.48;4.18;;;;;;;;;;4897933;29;20063;-75
2022/03/06 09:38:01;;;;;;;4.97;3.08;;;;;;;;;;4898134;29;20471;-76
2022/03/06 09:40:27;;;;;;;9.18;2.95;;;;;;;;;;4898530;29;20037;-75
2022/03/06 09:42:53;;;;;;;6.38;2.78;;;;;;;;;;4898561;29;20479;-76
2022/03/06 09:45:23;;;;;;;5.85;2.70;;;;;;;;;;4898452;29;20480;-73
2022/03/06 09:47:49;;;;;;;15.55;6.05;;;;;;;;;;4898323;29;20514;-79
2022/03/06 09:50:15;;;;;;;10.07;4.20;;;;;;;;;;4898461;29;20028;-80
2022/03/06 09:52:43;;;;;;;4.13;3.20;;;;;;;;;;4897712;29;20061;-77
2022/03/06 09:55:12;;;;;;;4.45;3.00;;;;;;;;;;4898057;29;20443;-74
2022/03/06 09:57:38;;;;;;;5.18;2.60;;;;;;;;;;4885494;29;20037;-77
2022/03/06 10:00:07;;;;;;;5.68;2.58;;;;;;;;;;4897846;29;20472;-82
2022/03/06 10:02:53;;;;;;;13.40;3.30;;;;;;;;;;4897990;29;20063;-80
2022/03/06 10:05:34;;;;;;;5.20;2.67;;;;;;;;;;4897596;29;20448;-81
2022/03/06 10:08:15;;;;;;;10.00;6.43;;;;;;;;;;4886659;29;20084;-74
2022/03/06 10:10:41;;;;;;;7.60;5.60;;;;;;;;;;4879242;29;20033;-77
2022/03/06 10:13:16;;;;;;;8.48;4.90;;;;;;;;;;4881999;29;20044;-76
2022/03/06 10:16:13;;;;;;;4.32;3.13;;;;;;;;;;4885489;29;20424;-77
2022/03/06 10:18:44;;;;;;;6.65;3.35;;;;;;;;;;4878640;29;20064;-78
2022/03/06 10:21:14;;;;;;;7.43;3.10;;;;;;;;;;4878576;29;20500;-74
2022/03/06 10:23:41;;;;;;;7.05;3.40;;;;;;;;;;4878277;29;20037;-72
2022/03/06 10:26:09;;;;;;;5.15;3.63;;;;;;;;;;4878544;29;20047;-73
2022/03/06 10:28:46;;;;;;;8.18;3.83;;;;;;;;;;4881325;29;20598;-75
2022/03/06 10:31:12;;;;;;;8.70;3.67;;;;;;;;;;4885697;29;20033;-75
2022/03/06 10:33:38;;;;;;;5.60;3.63;;;;;;;;;;4878938;29;20037;-74
2022/03/06 10:36:08;;;;;;;14.90;4.68;;;;;;;;;;4878818;29;20415;-75
2022/03/06 10:38:36;;;;;;;8.57;4.50;;;;;;;;;;4878638;29;20065;-75
2022/03/06 10:41:22;;;;;;;15.00;5.70;;;;;;;;;;4878047;29;20041;-74
2022/03/06 10:43:49;;;;;;;21.05;6.43;;;;;;;;;;4877935;29;20053;-74
2022/03/06 10:50:05;;;;;;;8.15;5.20;;;;;;;;;;4903772;29;20372;-73
2022/03/06 10:58:48;;;;;;;15.05;7.35;;;;;;;;;;4454928;29;20115;-71
2022/03/06 11:01:14;;;;;;;19.52;12.77;;;;;;;;;;4901975;29;20096;-74
2022/03/06 11:03:42;;;;;;;14.50;8.82;;;;;;;;;;4892863;29;20032;-77
2022/03/06 11:06:09;;;;;;;17.02;6.40;;;;;;;;;;4876792;29;20531;-69
2022/03/06 11:08:37;;;;;;;8.02;5.60;;;;;;;;;;4878105;29;20111;-74
2022/03/06 11:11:06;;;;;;;9.15;6.22;;;;;;;;;;4883123;29;20046;-74
2022/03/06 11:13:31;;;;;;;12.88;7.40;;;;;;;;;;4894857;29;20084;-77
2022/03/06 11:15:58;;;;;;;20.23;10.80;;;;;;;;;;4894113;29;20399;-72
2022/03/06 11:18:25;;;;;;;23.65;11.00;;;;;;;;;;4905980;29;20107;-74
2022/03/06 11:20:54;;;;;;;6.88;5.40;;;;;;;;;;4897525;29;20079;-70
2022/03/06 11:23:37;;;;;;;13.32;7.53;;;;;;;;;;4887047;29;20024;-71
2022/03/06 11:26:09;;;;;;;11.07;7.00;;;;;;;;;;4892248;29;20515;-73
2022/03/06 11:28:53;;;;;;;10.27;5.63;;;;;;;;;;4897233;29;20072;-72
2022/03/06 11:31:21;;;;;;;11.13;4.88;;;;;;;;;;4899732;29;20044;-75
2022/03/06 11:33:55;;;;;;;12.18;5.55;;;;;;;;;;4900486;29;20112;-71
2022/03/06 11:36:26;;;;;;;12.15;7.00;;;;;;;;;;4897531;29;20044;-75
2022/03/06 11:38:53;;;;;;;13.05;7.60;;;;;;;;;;4890253;29;20108;-72
2022/03/06 11:41:19;;;;;;;13.95;7.30;;;;;;;;;;4896329;29;20076;-71
2022/03/06 11:43:48;;;;;;;25.05;12.98;;;;;;;;;;4898303;29;20562;-74
2022/03/06 11:46:17;;;;;;;12.38;9.20;;;;;;;;;;4896455;29;20613;-78
2022/03/06 11:48:43;;;;;;;23.80;14.27;;;;;;;;;;4899678;29;20139;-79
2022/03/06 11:51:18;;;;;;;14.25;9.50;;;;;;;;;;4886708;29;20076;-73
2022/03/06 11:53:50;;;;;;;18.38;9.10;;;;;;;;;;4900112;29;20120;-77
2022/03/06 11:56:31;;;;;;;21.48;9.48;;;;;;;;;;4894887;29;20040;-74
2022/03/06 11:59:09;;;;;;;17.40;9.48;;;;;;;;;;4880653;29;20045;-75
2022/03/06 12:01:44;;;;;;;11.75;6.28;;;;;;;;;;4890097;29;20064;-75
2022/03/06 12:04:33;;;;;;;13.60;7.40;;;;;;;;;;4899772;29;20037;-73
2022/03/06 12:07:04;;;;;;;13.25;7.13;;;;;;;;;;4878398;29;20048;-77
2022/03/06 12:09:39;;;;;;;10.85;7.20;;;;;;;;;;4891471;29;20040;-76
2022/03/06 12:12:11;;;;;;;8.70;5.53;;;;;;;;;;4909654;29;20036;-70
2022/03/06 12:14:44;;;;;;;43.65;25.05;;;;;;;;;;4908175;29;20024;-76
2022/03/06 12:17:11;;;;;;;7.63;5.15;;;;;;;;;;4889468;29;20040;-78
2022/03/06 12:19:42;;;;;;;3.88;3.10;;;;;;;;;;4911232;29;20076;-74
2022/03/06 12:22:33;;;;;;;3.58;2.60;;;;;;;;;;4910417;29;20122;-73
2022/03/06 12:25:11;;;;;;;7.22;4.13;;;;;;;;;;4880856;29;20037;-74
2022/03/06 12:27:42;;;;;;;21.52;12.00;;;;;;;;;;4899798;29;20029;-78
2022/03/06 12:30:10;;;;;;;10.60;5.80;;;;;;;;;;4899708;29;20139;-72
2022/03/06 12:32:39;;;;;;;6.00;3.35;;;;;;;;;;4899563;29;20535;-74
2022/03/06 12:35:07;;;;;;;4.68;3.15;;;;;;;;;;4906818;29;20076;-77
2022/03/06 12:37:48;;;;;;;5.97;3.53;;;;;;;;;;4899171;29;20039;-75
2022/03/06 12:40:18;;;;;;;4.43;2.03;;;;;;;;;;4892199;29;20049;-73
2022/03/06 12:42:45;;;;;;;5.80;2.85;;;;;;;;;;4891658;29;20048;-71
2022/03/06 12:45:13;;;;;;;2.38;1.73;;;;;;;;;;4886844;29;20116;-72
2022/03/06 12:47:41;;;;;;;2.92;1.77;;;;;;;;;;4892552;29;20029;-75
2022/03/06 12:50:10;;;;;;;3.42;2.22;;;;;;;;;;4902818;29;20045;-70
2022/03/06 12:52:37;;;;;;;2.85;1.75;;;;;;;;;;4908443;29;20045;-73
2022/03/06 12:55:07;;;;;;;3.53;1.80;;;;;;;;;;4895905;29;20491;-73
2022/03/06 12:57:39;;;;;;;3.55;2.35;;;;;;;;;;4889490;29;20406;-72
2022/03/06 13:00:08;;;;;;;3.67;2.10;;;;;;;;;;4903734;29;20058;-78
2022/03/06 13:02:34;;;;;;;4.75;2.38;;;;;;;;;;4907781;29;20478;-72
2022/03/06 13:05:00;;;;;;;2.83;1.40;;;;;;;;;;4907540;29;20040;-74
2022/03/06 13:07:29;;;;;;;3.33;1.80;;;;;;;;;;4905150;29;20268;-74
2022/03/06 13:10:00;;;;;;;2.42;1.60;;;;;;;;;;4905673;29;20057;-75
2022/03/06 13:12:34;;;;;;;2.10;1.45;;;;;;;;;;4908378;29;20033;-70
2022/03/06 13:15:01;;;;;;;2.85;1.80;;;;;;;;;;4905319;29;20044;-70
2022/03/06 13:17:27;;;;;;;4.43;1.95;;;;;;;;;;4908506;29;20028;-74
2022/03/06 13:19:56;;;;;;;4.80;2.53;;;;;;;;;;4907772;29;20036;-75
2022/03/06 13:22:26;;;;;;;3.47;2.45;;;;;;;;;;4907275;29;20447;-73
2022/03/06 13:24:55;;;;;;;3.13;1.70;;;;;;;;;;4905179;29;20471;-75
2022/03/06 13:27:28;;;;;;;3.33;2.13;;;;;;;;;;4905831;29;20020;-77
2022/03/06 13:30:17;;;;;;;7.70;4.90;;;;;;;;;;4906089;29;20052;-75
2022/03/06 13:32:45;;;;;;;3.47;1.92;;;;;;;;;;4907743;29;20063;-75
2022/03/06 13:35:40;;;;;;;3.30;2.00;;;;;;;;;;4906987;29;20040;-75
2022/03/06 13:38:10;;;;;;;4.40;2.63;;;;;;;;;;4907944;29;20035;-75
2022/03/06 13:40:43;;;;;;;5.13;2.58;;;;;;;;;;4907839;29;20365;-72
2022/03/06 13:43:10;;;;;;;2.92;1.50;;;;;;;;;;4903313;29;20029;-75
2022/03/06 13:45:37;;;;;;;3.08;1.98;;;;;;;;;;4906817;29;20103;-75
2022/03/06 13:48:06;;;;;;;2.65;1.95;;;;;;;;;;4908281;29;20432;-72
2022/03/06 13:50:37;;;;;;;4.22;2.58;;;;;;;;;;4907206;29;20025;-76
2022/03/06 13:53:05;;;;;;;4.05;1.50;;;;;;;;;;4906271;29;20041;-74
2022/03/06 13:55:32;;;;;;;3.00;1.70;;;;;;;;;;4907757;29;20028;-72
2022/03/06 13:58:02;;;;;;;6.43;2.30;;;;;;;;;;4907388;29;20484;-75
2022/03/06 14:00:39;;;;;;;4.28;2.40;;;;;;;;;;4903850;29;20369;-74
2022/03/06 14:03:10;;;;;;;3.85;2.58;;;;;;;;;;4905995;29;20045;-73
2022/03/06 14:05:41;;;;;;;3.10;2.22;;;;;;;;;;4906726;29;20479;-72
2022/03/06 14:08:13;;;;;;;3.45;1.85;;;;;;;;;;4906236;29;20448;-73
2022/03/06 14:10:56;;;;;;;4.07;1.80;;;;;;;;;;4907995;29;20036;-77
2022/03/06 14:13:41;;;;;;;2.83;1.88;;;;;;;;;;4906896;29;20040;-76
2022/03/06 14:16:18;;;;;;;2.70;1.80;;;;;;;;;;4907615;29;20032;-77
2022/03/06 14:18:47;;;;;;;4.35;2.03;;;;;;;;;;4907265;29;20028;-74
2022/03/06 14:21:21;;;;;;;3.05;1.50;;;;;;;;;;4897575;29;20244;-77
2022/03/06 14:24:15;;;;;;;3.03;1.92;;;;;;;;;;4897325;29;20041;-74
2022/03/06 14:26:47;;;;;;;5.30;1.90;;;;;;;;;;4904316;29;20051;-76
2022/03/06 14:29:15;;;;;;;2.17;1.50;;;;;;;;;;4895527;29;20048;-75
2022/03/06 14:31:44;;;;;;;4.93;1.85;;;;;;;;;;4897328;29;20031;-74
2022/03/06 14:34:11;;;;;;;2.92;1.77;;;;;;;;;;4895228;29;20047;-76
2022/03/06 14:36:38;;;;;;;3.20;2.30;;;;;;;;;;4896979;29;20024;-73
2022/03/06 14:39:05;;;;;;;2.83;2.00;;;;;;;;;;4895668;29;20088;-74
2022/03/06 14:41:31;;;;;;;3.08;1.92;;;;;;;;;;4896607;29;20029;-71
2022/03/06 14:43:57;;;;;;;2.00;1.50;;;;;;;;;;4896864;29;20036;-73
2022/03/06 14:46:23;;;;;;;2.20;1.80;;;;;;;;;;4890846;29;20365;-72
2022/03/06 14:48:51;;;;;;;3.92;2.03;;;;;;;;;;4891486;29;20120;-75
2022/03/06 14:51:18;;;;;;;3.22;1.80;;;;;;;;;;4878498;29;20033;-73
2022/03/06 14:53:44;;;;;;;2.47;1.90;;;;;;;;;;4891626;29;20047;-75
2022/03/06 14:56:11;;;;;;;4.03;1.90;;;;;;;;;;4887120;29;20408;-73
2022/03/06 14:58:39;;;;;;;2.72;1.90;;;;;;;;;;4905972;29;20048;-70
2022/03/06 15:01:06;;;;;;;3.13;2.20;;;;;;;;;;4889585;29;20387;-74
2022/03/06 15:03:34;;;;;;;2.35;1.85;;;;;;;;;;4886540;29;20044;-73
2022/03/06 15:06:00;;;;;;;4.03;2.15;;;;;;;;;;4895301;29;20029;-70
2022/03/06 15:08:27;;;;;;;3.65;2.25;;;;;;;;;;4895648;29;20033;-70
2022/03/06 15:10:53;;;;;;;4.75;3.35;;;;;;;;;;4893540;29;20029;-73
2022/03/06 15:13:19;;;;;;;2.83;2.20;;;;;;;;;;4881334;29;20120;-74
2022/03/06 15:15:45;;;;;;;2.97;1.67;;;;;;;;;;4890281;29;20113;-72
2022/03/06 15:18:12;;;;;;;3.83;2.00;;;;;;;;;;4885492;29;20045;-71
2022/03/06 15:20:38;;;;;;;4.72;3.60;;;;;;;;;;4895627;29;20028;-75
2022/03/06 15:23:03;;;;;;;3.70;2.40;;;;;;;;;;4887639;29;20044;-72